Time;durP1;ratioP1;P1;durP2;ratioP2;P2;SDS_P1;SDS_P2;PMS_P1;PMS_P2;Temp;Humidity;BMP_temperature;BMP_pressure;BME280_temperature;BME280_humidity;BME280_pressure;Samples;Min_cycle;Max_cycle;Signal;HPM_P1;HPM_P2
2023/03/06 00:00:45;;;;;;;20.43;14.60;;;2.50;1.00;;;;;;5079327;28;20460;-61
2023/03/06 00:03:12;;;;;;;18.80;13.97;;;2.60;1.00;;;;;;5078910;28;20760;-61
2023/03/06 00:05:40;;;;;;;19.27;13.87;;;2.50;1.00;;;;;;5076915;28;20457;-60
2023/03/06 00:08:07;;;;;;;21.27;15.53;;;2.60;43.40;;;;;;5079154;28;20470;-61
2023/03/06 00:10:34;;;;;;;20.17;15.47;;;2.60;99.90;;;;;;5079433;28;20457;-62
2023/03/06 00:13:05;;;;;;;22.00;15.60;;;2.60;99.90;;;;;;5079230;28;20458;-61
2023/03/06 00:15:33;;;;;;;18.50;14.83;;;2.60;99.90;;;;;;5078704;28;20481;-61
2023/03/06 00:18:02;;;;;;;25.60;16.57;;;2.60;99.90;;;;;;5076353;28;20473;-61
2023/03/06 00:20:30;;;;;;;21.10;15.97;;;2.60;99.90;;;;;;5079362;28;20464;-60
2023/03/06 00:22:58;;;;;;;23.90;16.83;;;2.50;99.90;;;;;;5078861;28;20764;-61
2023/03/06 00:25:25;;;;;;;20.27;16.90;;;2.60;99.90;;;;;;5079032;28;20453;-60
2023/03/06 00:27:53;;;;;;;25.20;17.90;;;2.60;99.90;;;;;;5079076;28;20764;-61
2023/03/06 00:30:23;;;;;;;25.73;19.20;;;2.60;99.90;;;;;;5076406;28;20453;-61
2023/03/06 00:32:52;;;;;;;25.70;20.43;;;2.60;99.90;;;;;;5078891;28;20464;-60
2023/03/06 00:35:19;;;;;;;24.40;18.30;;;2.50;99.90;;;;;;5078773;28;20485;-61
2023/03/06 00:37:46;;;;;;;22.03;17.83;;;2.50;99.90;;;;;;5079059;28;20457;-61
2023/03/06 00:40:16;;;;;;;29.63;21.53;;;2.60;99.90;;;;;;5079188;28;20495;-61
2023/03/06 00:42:44;;;;;;;26.17;19.27;;;2.50;99.90;;;;;;5079100;28;20462;-61
2023/03/06 00:45:12;;;;;;;29.27;20.33;;;2.50;99.90;;;;;;5078877;28;20752;-62
2023/03/06 00:47:41;;;;;;;27.53;21.17;;;2.50;99.90;;;;;;5078977;28;20457;-62
2023/03/06 00:50:09;;;;;;;31.17;22.90;;;2.50;99.90;;;;;;5078383;28;20751;-63
2023/03/06 00:52:37;;;;;;;30.50;22.27;;;2.50;99.90;;;;;;5078039;28;20461;-63
2023/03/06 00:55:06;;;;;;;28.93;22.63;;;2.40;99.90;;;;;;5078527;28;20725;-63
2023/03/06 00:57:33;;;;;;;29.10;21.87;;;2.50;99.90;;;;;;5078062;28;20457;-63
2023/03/06 01:00:00;;;;;;;26.33;20.60;;;2.50;99.90;;;;;;5077083;28;20559;-64
2023/03/06 01:02:27;;;;;;;23.10;18.43;;;2.50;99.90;;;;;;5076519;28;20449;-64
2023/03/06 01:04:57;;;;;;;25.17;19.07;;;2.40;99.90;;;;;;5077944;28;20461;-65
2023/03/06 01:07:26;;;;;;;21.03;14.90;;;2.50;99.90;;;;;;5078247;28;20458;-65
2023/03/06 01:09:53;;;;;;;15.87;13.50;;;2.40;99.90;;;;;;5078445;28;20468;-65
2023/03/06 01:12:20;;;;;;;18.00;14.50;;;2.30;99.90;;;;;;5077958;28;20511;-67
2023/03/06 01:14:47;;;;;;;14.60;12.00;;;2.40;99.90;;;;;;5078659;28;20781;-68
2023/03/06 01:17:15;;;;;;;10.90;9.03;;;2.30;99.90;;;;;;5075610;28;20453;-69
2023/03/06 01:19:42;;;;;;;11.50;8.57;;;2.30;99.90;;;;;;5076381;28;20530;-66
2023/03/06 01:22:10;;;;;;;9.93;8.23;;;2.30;99.90;;;;;;5077376;28;20468;-66
2023/03/06 01:24:38;;;;;;;12.60;7.93;;;2.30;99.90;;;;;;5078286;28;20893;-66
2023/03/06 01:27:05;;;;;;;11.53;8.67;;;2.20;99.90;;;;;;5077937;28;20973;-65
2023/03/06 01:29:32;;;;;;;14.30;9.20;;;2.10;99.90;;;;;;5077890;28;20454;-66
2023/03/06 01:31:59;;;;;;;11.53;8.80;;;2.10;99.90;;;;;;5077290;28;20465;-66
2023/03/06 01:34:26;;;;;;;14.77;9.70;;;2.10;99.90;;;;;;5077879;28;20795;-66
2023/03/06 01:36:53;;;;;;;15.97;10.30;;;2.00;99.90;;;;;;5077089;28;20453;-66
2023/03/06 01:39:22;;;;;;;12.83;10.50;;;2.10;99.90;;;;;;5075827;28;20468;-66
2023/03/06 01:41:49;;;;;;;14.20;10.10;;;2.10;99.90;;;;;;5077529;28;20772;-67
2023/03/06 01:44:16;;;;;;;14.90;11.50;;;2.10;99.90;;;;;;5077863;28;20453;-67
2023/03/06 01:46:44;;;;;;;15.77;11.73;;;2.10;99.90;;;;;;5077874;28;20461;-66
2023/03/06 01:49:20;;;;;;;14.87;10.93;;;2.10;99.90;;;;;;5077775;28;20453;-65
2023/03/06 01:51:53;;;;;;;14.83;11.33;;;2.10;99.90;;;;;;5076272;28;20449;-65
2023/03/06 01:54:25;;;;;;;14.77;12.13;;;2.10;99.90;;;;;;5075075;28;20579;-65
2023/03/06 01:56:56;;;;;;;17.20;12.20;;;2.20;99.90;;;;;;5077425;28;20771;-65
2023/03/06 01:59:27;;;;;;;19.13;12.20;;;2.20;99.90;;;;;;5077032;28;20914;-64
2023/03/06 02:01:56;;;;;;;16.60;12.57;;;2.10;99.90;;;;;;5077018;28;20460;-64
2023/03/06 02:04:24;;;;;;;19.53;12.57;;;2.10;99.90;;;;;;5077128;28;20458;-64
2023/03/06 02:06:51;;;;;;;18.30;12.83;;;2.10;99.90;;;;;;5077352;28;20908;-64
2023/03/06 02:09:19;;;;;;;15.30;13.00;;;2.10;99.90;;;;;;5078569;28;20989;-64
2023/03/06 02:11:47;;;;;;;17.13;13.70;;;2.10;99.90;;;;;;5078075;28;20772;-66
2023/03/06 02:14:16;;;;;;;19.10;14.10;;;2.10;99.90;;;;;;5076737;28;20784;-64
2023/03/06 02:16:44;;;;;;;17.77;13.60;;;2.20;99.90;;;;;;5077365;28;20461;-65
2023/03/06 02:19:22;;;;;;;19.77;13.93;;;2.20;99.90;;;;;;5076457;28;20576;-63
2023/03/06 02:21:50;;;;;;;17.27;13.20;;;2.20;99.90;;;;;;5075809;28;20507;-61
2023/03/06 02:24:27;;;;;;;19.13;13.40;;;2.00;99.90;;;;;;5077645;28;20453;-59
2023/03/06 02:26:58;;;;;;;17.40;13.07;;;1.90;99.90;;;;;;5077261;28;20461;-60
2023/03/06 02:29:28;;;;;;;16.40;13.43;;;1.80;99.90;;;;;;5077148;28;20802;-60
2023/03/06 02:31:55;;;;;;;15.83;12.60;;;1.80;99.90;;;;;;5077682;28;20468;-60
2023/03/06 02:34:50;;;;;;;17.77;12.20;;;1.90;99.90;;;;;;5076127;28;20488;-57
2023/03/06 02:37:17;;;;;;;17.60;13.10;;;1.80;99.90;;;;;;5074588;28;20439;-62
2023/03/06 02:39:51;;;;;;;18.17;13.60;;;1.70;99.90;;;;;;5075985;28;20906;-62
2023/03/06 02:42:22;;;;;;;18.27;13.33;;;1.60;99.90;;;;;;5072204;28;20460;-60
2023/03/06 02:44:51;;;;;;;17.47;13.03;;;1.70;99.90;;;;;;5076347;28;20457;-61
2023/03/06 02:47:21;;;;;;;17.00;12.70;;;1.70;99.90;;;;;;5076785;28;20881;-61
2023/03/06 02:49:48;;;;;;;19.00;13.60;;;1.70;99.90;;;;;;5075290;28;20470;-62
2023/03/06 02:52:18;;;;;;;16.43;13.33;;;1.70;99.90;;;;;;5076412;28;20903;-62
2023/03/06 02:54:45;;;;;;;20.47;14.80;;;1.80;99.90;;;;;;5075871;28;20950;-62
2023/03/06 02:57:12;;;;;;;21.20;15.20;;;1.70;99.90;;;;;;5074860;28;20929;-62
2023/03/06 02:59:41;;;;;;;21.20;16.50;;;1.80;99.90;;;;;;5074045;28;20457;-62
2023/03/06 03:02:08;;;;;;;21.50;16.37;;;1.80;99.90;;;;;;5077145;28;20469;-61
2023/03/06 03:04:35;;;;;;;23.37;18.17;;;1.80;99.90;;;;;;5076838;28;20457;-62
2023/03/06 03:07:02;;;;;;;30.40;19.33;;;1.80;99.90;;;;;;5077337;28;20867;-62
2023/03/06 03:09:35;;;;;;;28.83;20.40;;;1.80;99.90;;;;;;5077111;28;20461;-63
2023/03/06 03:12:03;;;;;;;28.60;19.97;;;1.80;99.90;;;;;;5078136;28;20904;-63
2023/03/06 03:14:30;;;;;;;25.40;18.90;;;1.80;99.90;;;;;;5077041;28;20489;-64
2023/03/06 03:17:00;;;;;;;28.30;21.10;;;1.90;99.90;;;;;;5076926;28;20461;-63
2023/03/06 03:19:27;;;;;;;25.20;19.90;;;1.80;99.90;;;;;;5077295;28;20465;-63
2023/03/06 03:21:54;;;;;;;26.23;20.07;;;1.80;99.90;;;;;;5076683;28;20461;-63
2023/03/06 03:24:22;;;;;;;28.73;21.10;;;1.90;99.90;;;;;;5076595;28;20462;-63
2023/03/06 03:26:49;;;;;;;30.20;19.70;;;1.80;99.90;;;;;;5077607;28;20453;-62
2023/03/06 03:29:16;;;;;;;29.17;20.73;;;1.90;99.90;;;;;;5077071;28;20492;-63
2023/03/06 03:31:43;;;;;;;35.40;22.87;;;1.90;99.90;;;;;;5077462;28;20484;-62
2023/03/06 03:34:11;;;;;;;29.47;21.93;;;1.90;99.90;;;;;;5075616;28;20470;-62
2023/03/06 03:36:38;;;;;;;31.97;22.47;;;1.80;99.90;;;;;;5077166;28;20511;-63
2023/03/06 03:39:06;;;;;;;30.63;21.73;;;1.90;99.90;;;;;;5077244;28;20877;-62
2023/03/06 03:41:33;;;;;;;35.00;23.60;;;1.90;99.90;;;;;;5077234;28;20456;-62
2023/03/06 03:44:00;;;;;;;28.80;20.43;;;1.90;99.90;;;;;;5076679;28;20439;-62
2023/03/06 03:46:28;;;;;;;37.13;24.20;;;1.80;99.90;;;;;;5077280;28;20457;-63
2023/03/06 03:48:55;;;;;;;31.57;22.40;;;1.80;99.90;;;;;;5076913;28;20468;-62
2023/03/06 03:51:23;;;;;;;31.10;23.30;;;1.90;99.90;;;;;;5076970;28;20463;-62
2023/03/06 03:53:50;;;;;;;33.87;24.50;;;1.90;99.90;;;;;;5077357;28;20498;-63
2023/03/06 03:56:18;;;;;;;32.80;23.03;;;1.90;99.90;;;;;;5076749;28;20492;-63
2023/03/06 03:58:45;;;;;;;30.20;22.23;;;2.00;99.90;;;;;;5076880;28;20461;-62
2023/03/06 04:01:12;;;;;;;32.67;22.70;;;1.90;99.90;;;;;;5077084;28;20506;-63
2023/03/06 04:03:39;;;;;;;37.67;20.43;;;1.90;99.90;;;;;;5077228;28;20783;-63
2023/03/06 04:06:07;;;;;;;34.40;23.33;;;2.00;99.90;;;;;;5076955;28;20457;-63
2023/03/06 04:08:36;;;;;;;31.97;21.40;;;2.00;99.90;;;;;;5077796;28;20468;-61
2023/03/06 04:11:03;;;;;;;33.13;22.03;;;2.00;99.90;;;;;;5077152;28;20477;-63
2023/03/06 04:13:31;;;;;;;34.57;22.70;;;2.00;99.90;;;;;;5077314;28;20465;-63
2023/03/06 04:16:03;;;;;;;31.50;21.50;;;2.00;99.90;;;;;;5076529;28;20489;-63
2023/03/06 04:18:30;;;;;;;31.63;20.33;;;2.00;99.90;;;;;;5077090;28;20489;-63
2023/03/06 04:20:58;;;;;;;31.53;21.00;;;2.00;99.90;;;;;;5076841;28;20548;-63
2023/03/06 04:23:26;;;;;;;34.77;22.93;;;2.00;99.90;;;;;;5077491;28;20460;-63
2023/03/06 04:25:55;;;;;;;31.77;21.90;;;2.00;99.90;;;;;;5076657;28;20461;-64
2023/03/06 04:28:22;;;;;;;33.13;21.40;;;2.00;99.90;;;;;;5076752;28;20747;-64
2023/03/06 04:30:49;;;;;;;28.20;20.83;;;1.90;99.90;;;;;;5076718;28;20465;-65
2023/03/06 04:33:16;;;;;;;31.50;21.17;;;1.90;99.90;;;;;;5077412;28;20465;-65
2023/03/06 04:35:43;;;;;;;34.73;20.60;;;1.90;99.90;;;;;;5080443;28;20492;-65
2023/03/06 04:38:10;;;;;;;27.63;20.40;;;1.90;99.90;;;;;;5080386;28;20464;-66
2023/03/06 04:40:38;;;;;;;30.53;21.70;;;1.90;99.90;;;;;;5081026;28;20462;-67
2023/03/06 04:43:06;;;;;;;33.83;23.13;;;2.00;99.90;;;;;;5080149;28;20468;-67
2023/03/06 04:45:34;;;;;;;33.70;21.20;;;2.00;99.90;;;;;;5080887;28;20894;-67
2023/03/06 04:48:02;;;;;;;30.63;21.13;;;1.90;99.90;;;;;;5080278;28;20461;-68
2023/03/06 04:50:31;;;;;;;31.23;22.37;;;1.90;99.90;;;;;;5079718;28;20461;-68
2023/03/06 04:53:00;;;;;;;33.67;21.00;;;2.00;99.90;;;;;;5079765;28;20466;-68
2023/03/06 04:55:28;;;;;;;32.40;21.47;;;2.00;99.90;;;;;;5080161;28;20485;-67
2023/03/06 04:57:56;;;;;;;32.53;21.13;;;2.00;99.90;;;;;;5080120;28;20949;-68
2023/03/06 05:00:29;;;;;;;27.47;19.80;;;2.00;99.90;;;;;;5077863;28;20516;-67
2023/03/06 05:02:57;;;;;;;31.73;21.73;;;2.00;99.90;;;;;;5078166;28;20461;-66
2023/03/06 05:05:24;;;;;;;32.03;21.67;;;2.00;99.90;;;;;;5078224;28;20913;-66
2023/03/06 05:07:51;;;;;;;33.07;22.23;;;2.00;99.90;;;;;;5078009;28;20468;-65
2023/03/06 05:10:19;;;;;;;32.53;21.97;;;2.10;99.90;;;;;;5076666;28;20782;-65
2023/03/06 05:12:46;;;;;;;33.07;20.63;;;2.10;99.90;;;;;;5066516;28;20954;-64
2023/03/06 05:15:14;;;;;;;38.50;21.23;;;2.10;99.90;;;;;;5078482;28;20489;-64
2023/03/06 05:17:43;;;;;;;35.57;20.90;;;2.30;99.90;;;;;;5074722;28;20489;-64
2023/03/06 05:20:12;;;;;;;32.90;22.10;;;2.40;99.90;;;;;;5075238;28;20464;-63
2023/03/06 05:22:40;;;;;;;28.53;20.20;;;2.30;99.90;;;;;;5078688;28;20465;-63
2023/03/06 05:25:09;;;;;;;34.33;22.40;;;2.20;99.90;;;;;;5079305;28;20746;-63
2023/03/06 05:27:36;;;;;;;29.60;21.50;;;2.20;99.90;;;;;;5077517;28;21146;-63
2023/03/06 05:30:04;;;;;;;34.60;21.43;;;2.20;99.90;;;;;;5077788;28;20465;-63
2023/03/06 05:32:31;;;;;;;30.07;19.40;;;2.10;99.90;;;;;;5074989;28;20770;-63
2023/03/06 05:35:00;;;;;;;34.93;22.57;;;2.20;99.90;;;;;;5077844;28;20457;-63
2023/03/06 05:37:27;;;;;;;29.23;19.63;;;2.20;99.90;;;;;;5079031;28;20767;-63
2023/03/06 05:39:54;;;;;;;31.50;20.63;;;2.00;99.90;;;;;;5078190;28;20465;-63
2023/03/06 05:42:21;;;;;;;28.23;20.27;;;2.00;99.90;;;;;;5077821;28;20945;-63
2023/03/06 05:44:48;;;;;;;27.70;20.10;;;2.00;99.90;;;;;;5078830;28;20879;-62
2023/03/06 05:47:15;;;;;;;28.93;20.20;;;2.00;99.90;;;;;;5075194;28;20769;-63
2023/03/06 05:49:42;;;;;;;31.90;21.90;;;2.00;99.90;;;;;;5068836;28;20461;-62
2023/03/06 05:52:13;;;;;;;30.60;20.93;;;2.00;99.90;;;;;;5069108;28;20925;-63
2023/03/06 05:54:40;;;;;;;29.40;19.90;;;2.10;99.90;;;;;;5076590;28;20471;-62
2023/03/06 05:57:07;;;;;;;29.70;20.90;;;2.10;99.90;;;;;;5074506;28;20489;-62
2023/03/06 05:59:35;;;;;;;28.50;20.20;;;2.10;99.90;;;;;;5075703;28;20468;-62
2023/03/06 06:02:04;;;;;;;31.33;19.80;;;2.00;99.90;;;;;;5075566;28;20457;-62
2023/03/06 06:04:31;;;;;;;29.73;21.33;;;2.00;99.90;;;;;;5076488;28;20497;-62
2023/03/06 06:07:00;;;;;;;33.30;21.30;;;2.10;99.90;;;;;;5076729;28;20965;-62
2023/03/06 06:09:29;;;;;;;30.50;20.50;;;2.00;99.90;;;;;;5057401;28;20887;-62
2023/03/06 06:11:59;;;;;;;27.63;18.90;;;2.00;99.90;;;;;;5066786;28;20895;-62
2023/03/06 06:14:26;;;;;;;27.00;18.80;;;2.00;99.90;;;;;;5076008;28;20453;-62
2023/03/06 06:16:54;;;;;;;30.23;19.50;;;1.90;99.90;;;;;;5073284;28;20489;-62
2023/03/06 06:19:21;;;;;;;32.83;20.67;;;1.90;99.90;;;;;;5076529;28;20469;-63
2023/03/06 06:21:50;;;;;;;30.30;19.20;;;1.90;99.90;;;;;;5075942;28;20467;-62
2023/03/06 06:24:19;;;;;;;29.43;19.50;;;1.90;99.90;;;;;;5076101;28;20453;-62
2023/03/06 06:26:50;;;;;;;29.90;20.10;;;1.90;99.90;;;;;;5076018;28;20457;-63
2023/03/06 06:29:17;;;;;;;30.67;21.80;;;2.00;99.90;;;;;;5075825;28;20524;-62
2023/03/06 06:31:44;;;;;;;28.37;19.93;;;2.00;99.90;;;;;;5074517;28;20458;-62
2023/03/06 06:34:12;;;;;;;35.23;21.80;;;2.10;99.90;;;;;;5073081;28;20925;-65
2023/03/06 06:36:40;;;;;;;34.47;22.50;;;2.10;99.90;;;;;;5071772;28;20779;-62
2023/03/06 06:39:08;;;;;;;32.20;20.77;;;2.10;99.90;;;;;;5072868;28;20555;-62
2023/03/06 06:41:35;;;;;;;34.30;22.20;;;2.10;99.90;;;;;;5073794;28;20893;-62
2023/03/06 06:44:07;;;;;;;29.70;20.03;;;2.10;99.90;;;;;;5073643;28;20465;-62
2023/03/06 06:46:34;;;;;;;30.17;21.00;;;2.10;99.90;;;;;;5074511;28;20480;-62
2023/03/06 06:49:02;;;;;;;32.80;22.50;;;2.10;99.90;;;;;;5074636;28;20458;-62
2023/03/06 06:51:31;;;;;;;35.10;23.27;;;2.20;99.90;;;;;;5076837;28;20534;-62
2023/03/06 06:53:58;;;;;;;34.20;20.60;;;2.20;99.90;;;;;;5076553;28;20815;-62
2023/03/06 06:56:25;;;;;;;32.60;20.97;;;2.20;99.90;;;;;;5075257;28;20760;-62
2023/03/06 06:58:53;;;;;;;31.20;20.90;;;2.20;99.90;;;;;;5075241;28;20467;-62
2023/03/06 07:01:22;;;;;;;34.40;20.70;;;2.30;99.90;;;;;;5076494;28;20468;-62
2023/03/06 07:03:49;;;;;;;31.77;22.07;;;2.20;99.90;;;;;;5076299;28;20461;-61
2023/03/06 07:06:16;;;;;;;34.70;21.37;;;2.10;99.90;;;;;;5056360;28;20458;-62
2023/03/06 07:08:43;;;;;;;32.37;21.80;;;2.10;99.90;;;;;;5056824;28;20765;-62
2023/03/06 07:11:12;;;;;;;43.30;23.90;;;2.10;99.90;;;;;;5067021;28;20743;-63
2023/03/06 07:13:40;;;;;;;35.67;24.03;;;2.20;99.90;;;;;;5076776;28;20777;-63
2023/03/06 07:16:07;;;;;;;35.47;23.37;;;2.30;99.90;;;;;;5077495;28;20825;-63
2023/03/06 07:18:36;;;;;;;32.63;22.00;;;2.30;99.90;;;;;;5077359;28;20493;-63
2023/03/06 07:21:04;;;;;;;37.07;23.50;;;2.30;99.90;;;;;;5076798;28;20762;-63
2023/03/06 07:23:31;;;;;;;36.40;23.90;;;2.40;99.90;;;;;;5077477;28;20443;-63
2023/03/06 07:25:59;;;;;;;34.90;23.30;;;2.50;99.90;;;;;;5077453;28;20432;-64
2023/03/06 07:28:26;;;;;;;36.43;22.97;;;2.50;49.20;;;;;;5077505;28;20465;-64
2023/03/06 07:30:53;;;;;;;36.57;24.40;;;2.60;1.00;;;;;;5077615;28;20469;-63
2023/03/06 07:33:21;;;;;;;38.50;23.40;;;2.60;1.00;;;;;;5066673;28;20470;-64
2023/03/06 07:35:49;;;;;;;36.60;22.90;;;2.60;1.00;;;;;;5076719;28;20440;-63
2023/03/06 07:38:16;;;;;;;34.67;23.07;;;2.60;1.00;;;;;;5077501;28;20472;-63
2023/03/06 07:40:44;;;;;;;36.10;23.77;;;2.60;1.00;;;;;;5077393;28;20461;-64
2023/03/06 07:43:11;;;;;;;36.80;24.50;;;2.60;1.00;;;;;;5076437;28;20457;-64
2023/03/06 07:45:38;;;;;;;41.17;24.33;;;2.60;1.00;;;;;;5077303;28;20542;-63
2023/03/06 07:48:06;;;;;;;40.27;23.27;;;2.60;1.00;;;;;;5077268;28;20770;-64
2023/03/06 07:50:33;;;;;;;32.90;22.40;;;2.70;1.00;;;;;;5076882;28;20440;-64
2023/03/06 07:53:02;;;;;;;39.40;25.30;;;2.70;99.90;;;;;;5076737;28;20468;-63
2023/03/06 07:55:29;;;;;;;33.43;22.30;;;2.70;99.90;;;;;;5076955;28;20488;-63
2023/03/06 07:57:56;;;;;;;31.17;21.93;;;2.60;1.00;;;;;;5076305;28;20930;-64
2023/03/06 08:00:24;;;;;;;34.57;22.60;;;2.50;99.90;;;;;;5076904;28;20465;-64
2023/03/06 08:02:51;;;;;;;37.03;22.13;;;2.60;99.90;;;;;;5076165;28;20461;-63
2023/03/06 08:05:18;;;;;;;34.17;22.00;;;2.60;99.90;;;;;;5076279;28;20461;-63
2023/03/06 08:07:46;;;;;;;34.53;21.23;;;2.60;99.90;;;;;;5076361;28;20460;-63
2023/03/06 08:10:16;;;;;;;36.07;22.50;;;2.50;99.90;;;;;;5080496;28;20518;-63
2023/03/06 08:12:43;;;;;;;32.13;21.47;;;2.60;58.40;;;;;;5080294;28;20471;-63
2023/03/06 08:15:12;;;;;;;32.00;19.83;;;2.60;76.10;;;;;;5079799;28;20547;-63
2023/03/06 08:17:39;;;;;;;33.87;21.97;;;2.50;99.90;;;;;;5075439;28;20500;-62
2023/03/06 08:20:09;;;;;;;30.00;20.70;;;2.50;1.00;;;;;;5079155;28;20469;-63
2023/03/06 08:22:36;;;;;;;33.33;21.70;;;2.60;1.00;;;;;;5079050;28;20458;-63
2023/03/06 08:25:05;;;;;;;38.60;21.57;;;2.70;99.90;;;;;;5080548;28;20878;-63
2023/03/06 08:27:34;;;;;;;32.77;20.90;;;2.80;99.90;;;;;;5081190;28;20457;-63
2023/03/06 08:30:01;;;;;;;36.23;21.50;;;2.80;1.00;;;;;;5081117;28;20465;-63
2023/03/06 08:32:28;;;;;;;32.43;21.60;;;2.80;1.00;;;;;;5080187;28;20462;-64
2023/03/06 08:34:55;;;;;;;32.83;22.57;;;2.80;99.90;;;;;;5078809;28;20728;-63
2023/03/06 08:37:22;;;;;;;32.20;22.10;;;2.80;99.90;;;;;;5078641;28;20515;-63
2023/03/06 08:39:49;;;;;;;35.23;22.83;;;2.80;38.40;;;;;;5078889;28;20734;-63
2023/03/06 08:42:17;;;;;;;35.20;22.60;;;2.90;32.50;;;;;;5077689;28;20458;-65
2023/03/06 08:44:45;;;;;;;32.00;22.07;;;2.90;1.00;;;;;;5076030;28;20453;-65
2023/03/06 08:47:12;;;;;;;31.87;20.00;;;2.80;1.00;;;;;;5076427;28;20458;-64
2023/03/06 08:49:39;;;;;;;33.30;19.47;;;2.80;1.00;;;;;;5077757;28;20475;-65
2023/03/06 08:52:07;;;;;;;34.60;20.60;;;2.70;99.90;;;;;;5078158;28;20472;-65
2023/03/06 08:54:35;;;;;;;32.57;22.30;;;2.70;1.00;;;;;;5078447;28;20468;-65
2023/03/06 08:57:02;;;;;;;26.80;18.10;;;2.70;1.00;;;;;;5077090;28;20486;-65
2023/03/06 08:59:29;;;;;;;30.63;19.57;;;2.80;91.20;;;;;;5059414;28;20485;-65
2023/03/06 09:01:58;;;;;;;31.43;18.43;;;2.80;99.90;;;;;;5065461;28;20465;-65
2023/03/06 09:04:25;;;;;;;28.87;18.60;;;3.00;99.90;;;;;;5079961;28;20469;-65
2023/03/06 09:06:52;;;;;;;31.10;17.83;;;3.10;1.00;;;;;;5081011;28;20432;-66
2023/03/06 09:09:19;;;;;;;32.03;18.00;;;3.20;99.90;;;;;;5080487;28;20897;-67
2023/03/06 09:11:47;;;;;;;26.50;16.87;;;3.30;1.00;;;;;;5079984;28;20488;-66
2023/03/06 09:14:14;;;;;;;24.07;15.80;;;3.40;74.30;;;;;;5079979;28;20770;-66
2023/03/06 09:16:41;;;;;;;27.93;16.23;;;3.30;1.00;;;;;;5079657;28;20486;-66
2023/03/06 09:19:10;;;;;;;26.60;16.77;;;3.20;99.90;;;;;;5078954;28;20497;-66
2023/03/06 09:21:38;;;;;;;28.97;17.47;;;3.10;99.90;;;;;;5079363;28;20444;-67
2023/03/06 09:24:05;;;;;;;27.43;17.07;;;3.20;99.90;;;;;;5079124;28;20466;-66
2023/03/06 09:26:32;;;;;;;26.97;17.70;;;3.20;99.90;;;;;;5079255;28;20469;-66
2023/03/06 09:28:59;;;;;;;24.90;15.80;;;3.10;99.90;;;;;;5079179;28;20465;-67
2023/03/06 09:31:27;;;;;;;21.00;14.33;;;3.10;99.90;;;;;;5079648;28;20472;-67
2023/03/06 09:33:54;;;;;;;25.27;16.27;;;3.10;99.90;;;;;;5078645;28;20468;-67
2023/03/06 09:36:23;;;;;;;28.33;16.90;;;3.00;99.90;;;;;;5079812;28;20464;-66
2023/03/06 09:38:50;;;;;;;25.20;16.40;;;3.10;99.90;;;;;;5079857;28;20457;-67
2023/03/06 09:41:26;;;;;;;23.90;15.90;;;3.10;1.00;;;;;;5078316;28;20460;-66
2023/03/06 09:43:56;;;;;;;31.23;17.40;;;3.20;1.00;;;;;;5075890;28;20457;-67
2023/03/06 09:46:29;;;;;;;27.67;16.67;;;3.20;1.00;;;;;;5078234;28;20446;-67
2023/03/06 09:49:12;;;;;;;26.10;16.70;;;3.30;99.90;;;;;;5077998;28;20453;-67
2023/03/06 09:51:55;;;;;;;31.07;18.93;;;3.40;1.00;;;;;;5076138;28;20457;-67
2023/03/06 09:54:30;;;;;;;33.37;19.03;;;3.50;1.00;;;;;;5078783;28;20469;-67
2023/03/06 09:56:58;;;;;;;28.93;18.87;;;3.50;99.90;;;;;;5078764;28;20485;-66
2023/03/06 09:59:26;;;;;;;33.87;19.50;;;3.50;99.90;;;;;;5078040;28;20761;-66
2023/03/06 10:01:59;;;;;;;32.03;19.17;;;3.50;99.90;;;;;;5074656;28;20473;-64
2023/03/06 10:04:36;;;;;;;37.10;19.70;;;3.40;99.90;;;;;;5077904;28;20453;-63
2023/03/06 10:07:12;;;;;;;36.97;20.47;;;3.30;99.90;;;;;;5078574;28;20461;-65
2023/03/06 10:09:45;;;;;;;33.73;19.97;;;3.20;99.90;;;;;;5077251;28;20469;-65
2023/03/06 10:12:22;;;;;;;35.97;22.13;;;3.10;1.00;;;;;;5079125;28;20464;-64
2023/03/06 10:15:13;;;;;;;33.60;20.70;;;3.00;1.00;;;;;;5078319;28;20432;-65
2023/03/06 10:17:42;;;;;;;35.80;20.77;;;2.90;99.90;;;;;;5078912;28;20948;-66
2023/03/06 10:20:17;;;;;;;36.33;21.23;;;2.80;99.90;;;;;;5078559;28;20461;-66
2023/03/06 10:22:52;;;;;;;33.20;22.10;;;2.90;1.00;;;;;;5078823;28;20471;-66
2023/03/06 10:25:24;;;;;;;34.60;22.40;;;2.90;90.60;;;;;;5077305;28;20464;-66
2023/03/06 10:27:57;;;;;;;44.40;23.47;;;3.00;1.00;;;;;;5076869;28;20885;-65
2023/03/06 10:30:38;;;;;;;40.03;24.77;;;3.10;1.00;;;;;;5064059;28;20496;-66
2023/03/06 10:33:09;;;;;;;43.50;24.67;;;3.20;1.00;;;;;;5077457;28;20453;-65
2023/03/06 10:35:46;;;;;;;37.50;24.50;;;3.40;99.90;;;;;;5077000;28;20456;-65
2023/03/06 10:38:21;;;;;;;40.73;25.07;;;3.60;99.90;;;;;;5075178;28;20488;-65
2023/03/06 10:41:00;;;;;;;39.40;23.37;;;3.80;99.90;;;;;;5073676;28;20476;-64
2023/03/06 10:43:27;;;;;;;35.30;23.93;;;3.90;1.00;;;;;;5076368;28;20913;-64
2023/03/06 10:45:55;;;;;;;40.77;22.90;;;3.90;99.90;;;;;;5077623;28;20526;-64
2023/03/06 10:48:24;;;;;;;39.17;23.37;;;3.90;50.70;;;;;;5078165;28;20468;-64
2023/03/06 10:50:53;;;;;;;39.67;23.93;;;3.80;99.90;;;;;;5077226;28;20464;-64
2023/03/06 10:53:24;;;;;;;35.93;23.10;;;3.80;99.90;;;;;;5076786;28;20472;-64
2023/03/06 10:55:54;;;;;;;37.53;24.50;;;3.80;24.10;;;;;;5076022;28;20473;-64
2023/03/06 10:58:24;;;;;;;36.83;23.10;;;3.90;32.00;;;;;;5076589;28;20489;-64
2023/03/06 11:01:07;;;;;;;42.20;26.13;;;3.80;1.00;;;;;;5063895;28;20811;-63
2023/03/06 11:03:35;;;;;;;35.03;24.07;;;3.70;1.00;;;;;;5077167;28;20461;-64
2023/03/06 11:06:07;;;;;;;34.70;22.87;;;3.80;1.00;;;;;;5078459;28;20461;-64
2023/03/06 11:08:36;;;;;;;33.97;21.70;;;3.90;1.00;;;;;;5078602;28;20862;-64
2023/03/06 11:11:06;;;;;;;31.07;21.40;;;4.10;1.00;;;;;;5077583;28;20460;-64
2023/03/06 11:13:34;;;;;;;27.37;17.87;;;4.40;99.90;;;;;;5078398;28;20454;-64
2023/03/06 11:16:07;;;;;;;29.77;19.07;;;4.50;85.00;;;;;;5075938;28;20491;-64
2023/03/06 11:18:39;;;;;;;25.97;18.37;;;4.50;1.00;;;;;;5068687;28;20959;-64
2023/03/06 11:21:22;;;;;;;28.20;18.67;;;4.60;1.00;;;;;;5076781;28;20462;-64
2023/03/06 11:23:52;;;;;;;30.50;18.70;;;4.40;1.00;;;;;;5077369;28;20432;-64
2023/03/06 11:26:30;;;;;;;29.17;19.10;;;4.20;1.00;;;;;;5076809;28;20453;-64
2023/03/06 11:29:16;;;;;;;27.73;18.53;;;4.10;1.00;;;;;;5070477;28;20550;-64
2023/03/06 11:31:49;;;;;;;29.87;18.97;;;4.10;1.00;;;;;;5084084;28;20461;-64
2023/03/06 11:34:23;;;;;;;27.67;17.53;;;4.00;1.00;;;;;;5075195;28;20450;-64
2023/03/06 11:36:56;;;;;;;22.80;15.30;;;4.00;1.00;;;;;;5074687;28;20459;-64
2023/03/06 11:39:34;;;;;;;23.50;16.90;;;4.00;1.00;;;;;;5073363;28;20480;-64
2023/03/06 11:42:06;;;;;;;18.60;13.53;;;3.90;1.00;;;;;;5073060;28;20461;-64
2023/03/06 11:44:43;;;;;;;21.10;14.40;;;3.90;1.00;;;;;;5057407;28;21194;-64
2023/03/06 11:47:18;;;;;;;19.10;13.30;;;3.90;1.00;;;;;;5075448;28;20461;-64
2023/03/06 11:49:48;;;;;;;20.00;13.37;;;3.90;1.00;;;;;;5063430;28;20469;-64
2023/03/06 11:52:22;;;;;;;25.90;14.40;;;3.80;1.00;;;;;;5070385;28;20775;-64
2023/03/06 11:54:55;;;;;;;21.67;14.00;;;3.70;1.00;;;;;;5077315;28;20456;-64
2023/03/06 11:57:31;;;;;;;27.87;18.17;;;3.70;1.00;;;;;;5076379;28;20484;-64
2023/03/06 12:00:28;;;;;;;23.87;16.03;;;3.60;1.00;;;;;;5073195;28;20478;-63
2023/03/06 12:03:29;;;;;;;25.33;16.60;;;3.60;1.00;;;;;;5042877;28;20908;-63
2023/03/06 12:06:04;;;;;;;21.80;15.13;;;3.60;1.00;;;;;;5062340;28;20517;-63
2023/03/06 12:08:50;;;;;;;24.10;15.57;;;3.90;1.00;;;;;;5078235;28;20449;-63
2023/03/06 12:11:23;;;;;;;19.30;13.27;;;4.10;1.00;;;;;;5074974;28;20473;-64
2023/03/06 12:14:05;;;;;;;21.27;13.53;;;4.10;1.00;;;;;;5076174;28;20457;-64
2023/03/06 12:16:57;;;;;;;18.87;12.70;;;4.40;1.00;;;;;;5075753;28;20461;-64
2023/03/06 12:19:37;;;;;;;21.13;13.73;;;5.10;1.00;;;;;;5075411;28;20489;-64
2023/03/06 12:22:31;;;;;;;19.30;13.50;;;5.80;1.00;;;;;;5076448;28;20757;-64
2023/03/06 12:25:24;;;;;;;19.87;13.90;;;6.40;1.00;;;;;;5075529;28;20512;-65
2023/03/06 12:28:06;;;;;;;20.13;13.90;;;6.50;1.00;;;;;;5073479;28;20525;-65
2023/03/06 12:31:04;;;;;;;19.33;14.23;;;6.70;1.00;;;;;;5076511;28;20468;-65
2023/03/06 12:33:40;;;;;;;21.30;14.37;;;6.70;1.00;;;;;;5063340;28;20880;-65
2023/03/06 12:36:27;;;;;;;19.27;13.53;;;6.70;99.90;;;;;;5076240;28;20462;-66
2023/03/06 12:39:00;;;;;;;18.37;13.33;;;7.00;99.90;;;;;;5075742;28;20960;-66
2023/03/06 12:41:54;;;;;;;18.57;12.10;;;6.70;99.90;;;;;;5076130;28;20465;-66
2023/03/06 12:44:50;;;;;;;16.93;12.07;;;6.50;99.90;;;;;;5077026;28;20457;-66
2023/03/06 12:47:21;;;;;;;20.90;13.00;;;6.70;99.90;;;;;;5076222;28;20457;-67
2023/03/06 12:49:53;;;;;;;19.53;14.00;;;7.20;99.90;;;;;;5074769;28;20457;-66
2023/03/06 12:52:24;;;;;;;18.80;12.90;;;6.90;99.90;;;;;;5055726;28;20748;-66
2023/03/06 12:54:53;;;;;;;17.10;12.90;;;7.00;99.90;;;;;;5067034;28;20450;-66